Aviation Digital Data Service (ADDS)

Output produced by METARs form (0906 UTC 19 April 2019)
found at http://www.aviationweather.gov/metar/data/
 
Forecast for: FNHU (HUAMBO/NOVA LISB, AO)
Text: TAF FNHU 182300Z 1900/1912 09003KT 9999 FEW015 FEW023CB
Forecast period: 0000 to 0600 UTC 19 April 2019
Forecast type: FROM: standard forecast or significant change
Winds: from the E (90 degrees) at 3 MPH (3 knots; 1.5 m/s)
Visibility: 6 or more miles 10+ km)
Ceiling: at least 12,000 feet AGL
Clouds: few clouds at 1500 feet AGL
few clouds at 2300 feet AGL
Weather: no significant weather forecast for this period
Text: BECMG 1906/1908 7000 OVC020
Forecast period: 0600 to 1200 UTC 19 April 2019
Forecast type: BECOMING: Conditions expected to become as follows by 0800 UTC 19 April 2019
Winds: from the E (90 degrees) at 3 MPH (3 knots; 1.5 m/s)
Visibility: 4 miles (7 km)
Ceiling: 2000 feet AGL
Clouds: overcast cloud deck at 2000 feet AGL
Weather: no significant weather forecast for this period